Terminal Aerodrome Forecast
Issued by NWS Topeka, KS

Home | Current Version | Previous Version | Text Only | Print | Product List | Glossary On
Versions: 1 2 3 4 5 6 7 8 9 10 11 12 13 14 15 16 17 18 19 20 21 22 23 24 25 26 27 28
000
FTUS43 KTOP 021100 CCA
TAFTOP
TAF COR
KTOP 021136Z 0212/0312 VRB02KT 1SM BR BKN002
      TEMPO 0212/0214 3SM BR BKN015
     FM021400 04004KT P6SM SCT040
     FM030600 13008KT P6SM VCTS BKN060CB=

USA.gov is the U.S. government's official web portal to all federal, state and local government web resources and services.